createdAt,value
2018-03-21T00:00:43.007Z,3.60
2018-03-21T00:03:10.419Z,3.53
2018-03-21T00:05:37.813Z,3.40
2018-03-21T00:08:05.208Z,3.37
2018-03-21T00:10:32.626Z,2.73
2018-03-21T00:13:00.237Z,3.80
2018-03-21T00:15:27.628Z,2.83
2018-03-21T00:17:55.011Z,3.43
2018-03-21T00:20:22.447Z,3.40
2018-03-21T00:22:50.119Z,3.67
2018-03-21T00:25:17.540Z,2.50
2018-03-21T00:27:44.980Z,3.40
2018-03-21T00:30:12.381Z,3.63
2018-03-21T00:32:39.775Z,3.87
2018-03-21T00:35:07.185Z,4.33
2018-03-21T00:37:34.569Z,4.50
2018-03-21T00:40:01.981Z,4.57
2018-03-21T00:42:29.376Z,3.10
2018-03-21T00:44:56.933Z,3.80
2018-03-21T00:47:24.316Z,2.67
2018-03-21T00:49:51.711Z,2.87
2018-03-21T00:52:19.120Z,3.10
2018-03-21T00:54:46.512Z,3.00
2018-03-21T00:57:13.939Z,3.53
2018-03-21T01:05:22.175Z,2.90
2018-03-21T01:07:49.597Z,3.03
2018-03-21T01:10:17.005Z,3.73
2018-03-21T01:12:44.428Z,3.40
2018-03-21T01:15:11.834Z,3.23
2018-03-21T01:17:39.255Z,3.23
2018-03-21T01:20:06.658Z,3.10
2018-03-21T01:22:34.070Z,3.80
2018-03-21T01:25:01.487Z,4.33
2018-03-21T01:27:28.915Z,2.93
2018-03-21T01:29:56.324Z,3.37
2018-03-21T01:32:23.756Z,3.17
2018-03-21T01:34:51.155Z,3.30
2018-03-21T01:37:18.577Z,2.87
2018-03-21T01:39:46.019Z,4.00
2018-03-21T01:42:13.455Z,2.90
2018-03-21T01:44:40.874Z,3.07
2018-03-21T01:47:08.298Z,3.70
2018-03-21T01:49:35.717Z,2.80
2018-03-21T01:52:03.145Z,3.63
2018-03-21T01:54:30.556Z,3.03
2018-03-21T01:56:57.961Z,3.10
2018-03-21T01:59:25.383Z,3.97
2018-03-21T02:01:52.802Z,3.03
2018-03-21T02:04:20.517Z,3.20
2018-03-21T02:06:47.921Z,3.50
2018-03-21T02:09:16.234Z,3.47
2018-03-21T02:11:43.649Z,4.03
2018-03-21T02:14:11.061Z,4.10
2018-03-21T02:16:38.479Z,3.63
2018-03-21T02:19:05.883Z,4.73
2018-03-21T02:21:33.294Z,3.20
2018-03-21T02:24:00.694Z,3.63
2018-03-21T02:26:28.117Z,3.50
2018-03-21T02:28:55.528Z,3.40
2018-03-21T02:31:22.939Z,3.30
2018-03-21T02:33:50.380Z,3.97
2018-03-21T02:36:17.798Z,3.20
2018-03-21T02:38:45.238Z,5.13
2018-03-21T02:41:12.666Z,3.53
2018-03-21T02:43:40.095Z,3.27
2018-03-21T02:46:07.522Z,3.27
2018-03-21T02:48:34.932Z,3.37
2018-03-21T02:56:42.289Z,3.60
2018-03-21T02:59:09.708Z,4.03
2018-03-21T03:01:37.135Z,13.77
2018-03-21T03:04:04.667Z,4.97
2018-03-21T03:06:32.082Z,3.93
2018-03-21T03:08:59.492Z,3.90
2018-03-21T03:11:26.907Z,4.00
2018-03-21T03:13:54.318Z,3.87
2018-03-21T03:16:21.748Z,4.30
2018-03-21T03:18:49.178Z,5.43
2018-03-21T03:21:16.635Z,4.23
2018-03-21T03:23:44.071Z,4.40
2018-03-21T03:26:11.523Z,3.60
2018-03-21T03:28:38.929Z,3.93
2018-03-21T03:31:06.340Z,4.47
2018-03-21T03:33:33.761Z,4.67
2018-03-21T03:36:01.165Z,4.33
2018-03-21T03:38:28.594Z,4.17
2018-03-21T03:40:56.003Z,4.70
2018-03-21T03:43:23.443Z,4.17
2018-03-21T03:45:50.849Z,4.67
2018-03-21T03:48:18.276Z,4.27
2018-03-21T03:50:45.818Z,4.07
2018-03-21T03:53:13.233Z,4.23
2018-03-21T03:55:40.661Z,5.07
2018-03-21T03:58:08.086Z,4.10
2018-03-21T04:00:35.496Z,4.80
2018-03-21T04:03:02.901Z,5.00
2018-03-21T04:05:30.323Z,4.07
2018-03-21T04:07:57.726Z,4.17
2018-03-21T04:10:25.135Z,4.53
2018-03-21T04:12:52.565Z,5.33
2018-03-21T04:15:19.997Z,4.30
2018-03-21T04:17:47.441Z,5.60
2018-03-21T04:20:14.849Z,4.83
2018-03-21T04:22:42.276Z,4.53
2018-03-21T04:25:09.702Z,4.13
2018-03-21T04:27:37.265Z,4.50
2018-03-21T04:30:04.678Z,4.23
2018-03-21T04:32:32.086Z,4.23
2018-03-21T04:34:59.621Z,4.83
2018-03-21T04:37:27.042Z,4.03
2018-03-21T04:39:54.454Z,4.23
2018-03-21T04:42:21.889Z,4.07
2018-03-21T04:44:49.322Z,4.23
2018-03-21T04:47:16.762Z,4.20
2018-03-21T04:49:44.217Z,4.87
2018-03-21T04:52:11.646Z,5.17
2018-03-21T04:54:39.061Z,4.50
2018-03-21T04:57:06.466Z,4.43
2018-03-21T04:59:34.198Z,4.40
2018-03-21T05:02:01.606Z,4.53
2018-03-21T05:04:29.005Z,4.60
2018-03-21T05:06:56.435Z,4.33
2018-03-21T05:09:23.845Z,4.70
2018-03-21T05:11:51.534Z,5.43
2018-03-21T05:14:18.945Z,5.40
2018-03-21T05:16:47.286Z,5.33
2018-03-21T05:19:14.735Z,5.30
2018-03-21T05:21:42.145Z,5.07
2018-03-21T05:24:09.562Z,5.37
2018-03-21T05:26:36.997Z,5.17
2018-03-21T05:29:04.424Z,5.07
2018-03-21T05:31:31.843Z,5.60
2018-03-21T05:33:59.278Z,5.33
2018-03-21T05:36:26.694Z,5.47
2018-03-21T05:38:54.101Z,6.77
2018-03-21T05:41:21.594Z,5.80
2018-03-21T05:43:48.951Z,5.10
2018-03-21T05:46:16.386Z,4.97
2018-03-21T05:48:43.789Z,5.67
2018-03-21T05:51:11.206Z,6.03
2018-03-21T05:53:38.617Z,5.23
2018-03-21T05:56:06.049Z,5.53
2018-03-21T05:58:33.449Z,6.97
2018-03-21T06:01:00.863Z,5.40
2018-03-21T06:03:28.282Z,6.97
2018-03-21T06:05:55.832Z,7.20
2018-03-21T06:08:23.258Z,5.97
2018-03-21T06:10:50.653Z,6.57
2018-03-21T06:13:18.089Z,6.20
2018-03-21T06:15:45.524Z,6.83
2018-03-21T06:18:13.024Z,7.07
2018-03-21T06:20:40.464Z,7.27
2018-03-21T06:23:08.126Z,7.20
2018-03-21T06:25:35.522Z,7.67
2018-03-21T06:28:02.945Z,6.87
2018-03-21T06:30:30.353Z,8.07
2018-03-21T06:32:57.766Z,7.20
2018-03-21T06:35:25.185Z,7.33
2018-03-21T06:37:52.583Z,6.60
2018-03-21T06:40:20.003Z,7.67
2018-03-21T06:42:47.435Z,7.27
2018-03-21T06:45:14.841Z,8.00
2018-03-21T06:47:42.251Z,7.83
2018-03-21T06:50:09.665Z,6.77
2018-03-21T06:52:37.085Z,6.80
2018-03-21T06:55:04.513Z,6.53
2018-03-21T06:57:31.933Z,7.63
2018-03-21T06:59:59.344Z,8.33
2018-03-21T07:02:26.766Z,6.47
2018-03-21T07:04:54.176Z,6.00
2018-03-21T07:07:21.598Z,6.67
2018-03-21T07:09:49.052Z,6.40
2018-03-21T07:12:16.561Z,7.63
2018-03-21T07:14:55.682Z,7.23
2018-03-21T07:17:23.151Z,5.90
2018-03-21T07:19:50.706Z,6.70
2018-03-21T07:22:18.134Z,7.00
2018-03-21T07:24:45.545Z,7.57
2018-03-21T07:27:12.971Z,7.10
2018-03-21T07:29:40.387Z,7.90
2018-03-21T07:32:07.798Z,7.90
2018-03-21T07:34:35.228Z,6.43
2018-03-21T07:37:02.622Z,7.53
2018-03-21T07:39:30.049Z,8.07
2018-03-21T07:41:57.473Z,7.87
2018-03-21T07:44:24.893Z,6.03
2018-03-21T07:46:52.323Z,7.47
2018-03-21T07:49:19.755Z,6.20
2018-03-21T07:51:47.153Z,9.07
2018-03-21T07:54:14.586Z,7.00
2018-03-21T07:56:41.999Z,8.20
2018-03-21T07:59:09.422Z,7.63
2018-03-21T08:01:36.839Z,8.77
2018-03-21T08:04:04.278Z,7.30
2018-03-21T08:06:31.690Z,7.43
2018-03-21T08:08:59.125Z,7.13
2018-03-21T08:11:26.537Z,7.67
2018-03-21T08:13:53.965Z,6.23
2018-03-21T08:16:21.377Z,8.83
2018-03-21T08:18:48.786Z,7.07
2018-03-21T08:21:16.318Z,6.27
2018-03-21T08:23:43.725Z,6.97
2018-03-21T08:26:11.133Z,6.00
2018-03-21T08:28:38.681Z,5.40
2018-03-21T08:31:06.093Z,4.90
2018-03-21T08:33:33.501Z,4.73
2018-03-21T08:36:00.926Z,4.90
2018-03-21T08:38:28.321Z,4.33
2018-03-21T08:40:55.760Z,4.67
2018-03-21T08:43:23.176Z,5.30
2018-03-21T08:45:50.635Z,5.20
2018-03-21T08:48:18.063Z,5.33
2018-03-21T08:50:45.517Z,5.30
2018-03-21T08:53:12.930Z,6.43
2018-03-21T08:55:40.345Z,5.63
2018-03-21T08:58:07.757Z,6.20
2018-03-21T09:00:35.177Z,5.63
2018-03-21T09:03:02.601Z,5.20
2018-03-21T09:05:30.006Z,5.43
2018-03-21T09:07:57.426Z,4.93
2018-03-21T09:10:24.842Z,5.37
2018-03-21T09:12:52.246Z,6.47
2018-03-21T09:15:19.677Z,6.97
2018-03-21T09:17:47.085Z,6.37
2018-03-21T09:20:14.493Z,6.40
2018-03-21T09:22:41.923Z,6.70
2018-03-21T09:25:09.354Z,8.50
2018-03-21T09:27:36.749Z,8.40
2018-03-21T09:30:04.160Z,9.87
2018-03-21T09:32:31.769Z,8.43
2018-03-21T09:34:59.183Z,10.00
2018-03-21T09:37:26.638Z,11.57
2018-03-21T09:39:54.017Z,11.20
2018-03-21T09:42:21.430Z,12.67
2018-03-21T09:44:48.857Z,12.53
2018-03-21T09:47:16.258Z,13.10
2018-03-21T09:49:43.779Z,12.27
2018-03-21T09:52:11.090Z,11.80
2018-03-21T09:54:43.390Z,11.70
2018-03-21T09:57:11.155Z,11.80
2018-03-21T09:59:38.575Z,10.97
2018-03-21T10:02:05.983Z,9.93
2018-03-21T10:04:33.410Z,13.50
2018-03-21T10:07:00.835Z,9.13
2018-03-21T10:09:28.254Z,8.87
2018-03-21T10:11:55.675Z,10.33
2018-03-21T10:14:23.171Z,10.67
2018-03-21T10:16:50.530Z,10.30
2018-03-21T10:19:18.394Z,10.13
2018-03-21T10:21:45.801Z,8.70
2018-03-21T10:24:13.218Z,9.73
2018-03-21T10:26:40.637Z,10.67
2018-03-21T10:29:08.069Z,9.50
2018-03-21T10:31:35.746Z,10.73
2018-03-21T10:34:03.156Z,10.17
2018-03-21T10:36:30.614Z,10.60
2018-03-21T10:38:57.995Z,10.63
2018-03-21T10:41:25.406Z,10.23
2018-03-21T10:43:52.844Z,10.37
2018-03-21T10:46:20.250Z,10.87
2018-03-21T10:48:47.657Z,12.07
2018-03-21T10:51:15.102Z,13.43
2018-03-21T10:53:42.516Z,12.33
2018-03-21T10:56:09.962Z,11.37
2018-03-21T10:58:37.398Z,12.60
2018-03-21T11:01:10.537Z,12.07
2018-03-21T11:03:38.306Z,10.73
2018-03-21T11:06:05.726Z,10.77
2018-03-21T11:08:34.088Z,11.07
2018-03-21T11:11:01.816Z,12.30
2018-03-21T11:13:29.252Z,11.93
2018-03-21T11:15:56.661Z,10.60
2018-03-21T11:18:24.086Z,10.60
2018-03-21T11:20:51.550Z,12.17
2018-03-21T11:23:18.982Z,11.33
2018-03-21T11:25:46.547Z,10.67
2018-03-21T11:28:14.095Z,10.50
2018-03-21T11:30:41.518Z,10.43
2018-03-21T11:33:08.961Z,11.60
2018-03-21T11:35:36.500Z,11.20
2018-03-21T11:38:03.914Z,11.60
2018-03-21T11:40:31.326Z,11.27
2018-03-21T11:42:58.754Z,9.77
2018-03-21T11:45:26.174Z,10.77
2018-03-21T11:47:53.861Z,11.13
2018-03-21T11:50:21.317Z,11.37
2018-03-21T11:52:48.750Z,11.27
2018-03-21T11:55:16.192Z,10.70
2018-03-21T11:57:43.743Z,13.10
2018-03-21T12:00:11.153Z,11.03
2018-03-21T12:02:38.583Z,10.53
2018-03-21T12:05:06.001Z,9.93
2018-03-21T12:07:33.422Z,12.93
2018-03-21T12:10:00.849Z,12.43
2018-03-21T12:12:29.400Z,12.50
2018-03-21T12:14:56.807Z,12.37
2018-03-21T12:17:24.218Z,10.53
2018-03-21T12:19:51.666Z,10.03
2018-03-21T12:22:19.073Z,10.33
2018-03-21T12:24:46.487Z,10.77
2018-03-21T12:27:14.408Z,10.37
2018-03-21T12:29:41.829Z,10.63
2018-03-21T12:32:09.242Z,10.80
2018-03-21T12:34:36.683Z,10.80
2018-03-21T12:37:04.096Z,11.27
2018-03-21T12:39:31.522Z,11.93
2018-03-21T12:41:58.960Z,11.27
2018-03-21T12:44:26.454Z,11.40
2018-03-21T12:46:53.901Z,11.10
2018-03-21T12:49:21.393Z,11.20
2018-03-21T12:51:48.838Z,10.60
2018-03-21T12:54:16.450Z,11.80
2018-03-21T12:56:44.456Z,11.60
2018-03-21T12:59:11.874Z,10.63
2018-03-21T13:01:39.310Z,10.83
2018-03-21T13:04:06.717Z,11.60
2018-03-21T13:06:34.128Z,11.87
2018-03-21T13:09:01.550Z,10.40
2018-03-21T13:11:28.961Z,11.70
2018-03-21T13:13:56.378Z,9.93
2018-03-21T13:16:23.787Z,10.67
2018-03-21T13:18:51.215Z,9.40
2018-03-21T13:21:18.629Z,10.20
2018-03-21T13:23:46.070Z,12.00
2018-03-21T13:26:13.481Z,12.50
2018-03-21T13:28:40.902Z,11.47
2018-03-21T13:31:08.339Z,9.47
2018-03-21T13:33:35.749Z,10.67
2018-03-21T13:36:03.172Z,10.33
2018-03-21T13:38:30.594Z,10.10
2018-03-21T13:40:58.018Z,10.43
2018-03-21T13:43:25.443Z,10.40
2018-03-21T13:45:52.849Z,10.13
2018-03-21T13:48:20.263Z,11.37
2018-03-21T13:50:47.698Z,10.33
2018-03-21T13:53:15.105Z,10.27
2018-03-21T13:55:42.518Z,9.50
2018-03-21T13:58:09.930Z,11.60
2018-03-21T14:00:37.455Z,9.83
2018-03-21T14:03:04.858Z,9.27
2018-03-21T14:05:32.267Z,8.73
2018-03-21T14:07:59.704Z,9.03
2018-03-21T14:10:27.116Z,8.60
2018-03-21T14:12:54.559Z,9.57
2018-03-21T14:15:21.965Z,8.07
2018-03-21T14:17:49.378Z,8.10
2018-03-21T14:20:16.804Z,8.03
2018-03-21T14:22:44.203Z,8.47
2018-03-21T14:25:11.639Z,8.03
2018-03-21T14:27:39.051Z,8.73
2018-03-21T14:30:06.505Z,7.37
2018-03-21T14:32:33.892Z,8.33
2018-03-21T14:35:01.298Z,8.37
2018-03-21T14:37:28.768Z,8.83
2018-03-21T14:39:56.172Z,8.97
2018-03-21T14:42:23.939Z,8.93
2018-03-21T14:44:51.350Z,9.40
2018-03-21T14:47:18.832Z,8.00
2018-03-21T14:49:46.407Z,9.10
2018-03-21T14:52:13.811Z,8.33
2018-03-21T14:54:41.218Z,8.80
2018-03-21T14:57:08.678Z,10.47
2018-03-21T14:59:36.098Z,9.73
2018-03-21T15:02:03.589Z,8.90
2018-03-21T15:04:31.005Z,8.13
2018-03-21T15:06:58.421Z,7.80
2018-03-21T15:09:25.852Z,7.93
2018-03-21T15:11:53.294Z,7.30
2018-03-21T15:14:20.790Z,7.80
2018-03-21T15:16:48.205Z,7.23
2018-03-21T15:19:15.870Z,8.43
2018-03-21T15:21:43.289Z,7.97
2018-03-21T15:24:10.714Z,7.63
2018-03-21T15:26:38.152Z,6.83
2018-03-21T15:29:06.456Z,6.93
2018-03-21T15:31:33.866Z,8.00
2018-03-21T15:34:01.294Z,6.93
2018-03-21T15:36:28.722Z,8.27
2018-03-21T15:38:56.125Z,7.40
2018-03-21T15:41:23.558Z,7.37
2018-03-21T15:43:51.082Z,7.83
2018-03-21T15:46:18.498Z,8.20
2018-03-21T15:48:45.905Z,7.23
2018-03-21T15:51:13.387Z,7.03
2018-03-21T15:53:40.747Z,8.30
2018-03-21T15:56:08.167Z,7.37
2018-03-21T15:58:35.579Z,7.53
2018-03-21T16:01:03.011Z,7.63
2018-03-21T16:03:30.427Z,7.47
2018-03-21T16:05:57.875Z,7.07
2018-03-21T16:08:25.324Z,6.10
2018-03-21T16:10:52.740Z,5.70
2018-03-21T16:13:20.173Z,6.33
2018-03-21T16:15:47.626Z,6.23
2018-03-21T16:18:15.089Z,7.50
2018-03-21T16:20:42.532Z,6.67
2018-03-21T16:23:09.982Z,7.47
2018-03-21T16:25:37.398Z,7.40
2018-03-21T16:28:04.808Z,6.90
2018-03-21T16:30:32.234Z,7.17
2018-03-21T16:32:59.657Z,7.00
2018-03-21T16:35:27.433Z,6.67
2018-03-21T16:37:54.865Z,7.70
2018-03-21T16:40:22.267Z,7.33
2018-03-21T16:42:49.690Z,7.73
2018-03-21T16:45:17.107Z,7.87
2018-03-21T16:47:44.535Z,8.53
2018-03-21T16:50:11.937Z,7.37
2018-03-21T16:52:39.382Z,7.07
2018-03-21T16:55:06.780Z,8.00
2018-03-21T16:57:34.207Z,8.53
2018-03-21T17:00:01.645Z,8.30
2018-03-21T17:02:29.054Z,7.77
2018-03-21T17:04:56.586Z,7.87
2018-03-21T17:07:24.013Z,7.80
2018-03-21T17:09:51.424Z,7.63
2018-03-21T17:12:18.844Z,7.80
2018-03-21T17:14:46.284Z,8.13
2018-03-21T17:17:13.686Z,6.70
2018-03-21T17:19:41.150Z,6.53
2018-03-21T17:22:08.541Z,6.60
2018-03-21T17:24:35.956Z,7.30
2018-03-21T17:27:03.385Z,6.83
2018-03-21T17:29:30.786Z,7.67
2018-03-21T17:31:58.206Z,7.83
2018-03-21T17:34:25.662Z,7.83
2018-03-21T17:36:53.067Z,7.17
2018-03-21T17:39:20.485Z,8.10
2018-03-21T17:41:48.018Z,10.37
2018-03-21T17:44:15.452Z,7.93
2018-03-21T17:46:42.877Z,7.40
2018-03-21T17:49:10.309Z,7.50
2018-03-21T17:51:37.714Z,7.90
2018-03-21T17:54:05.138Z,7.43
2018-03-21T17:56:32.541Z,8.03
2018-03-21T17:58:59.949Z,8.00
2018-03-21T18:01:27.374Z,7.80
2018-03-21T18:03:54.809Z,7.33
2018-03-21T18:06:22.393Z,7.30
2018-03-21T18:08:49.830Z,7.87
2018-03-21T18:11:17.267Z,7.77
2018-03-21T18:13:45.001Z,8.17
2018-03-21T18:16:12.416Z,7.97
2018-03-21T18:18:39.821Z,7.67
2018-03-21T18:21:07.604Z,7.33
2018-03-21T18:23:35.001Z,8.37
2018-03-21T18:26:02.422Z,8.90
2018-03-21T18:28:29.847Z,7.90
2018-03-21T18:30:57.250Z,8.37
2018-03-21T18:33:24.656Z,8.77
2018-03-21T18:35:52.079Z,8.13
2018-03-21T18:38:19.487Z,8.70
2018-03-21T18:40:46.897Z,8.70
2018-03-21T18:43:14.322Z,9.07
2018-03-21T18:45:41.750Z,8.17
2018-03-21T18:48:09.150Z,8.90
2018-03-21T18:50:36.560Z,8.80
2018-03-21T18:53:04.293Z,8.50
2018-03-21T18:55:31.702Z,7.83
2018-03-21T18:57:59.128Z,9.73
2018-03-21T19:00:26.558Z,9.20
2018-03-21T19:02:53.960Z,10.77
2018-03-21T19:05:21.482Z,10.83
2018-03-21T19:07:48.912Z,10.30
2018-03-21T19:10:16.327Z,12.53
2018-03-21T19:15:11.010Z,15.23
2018-03-21T19:17:38.425Z,16.77
2018-03-21T19:20:05.840Z,17.90
2018-03-21T19:22:33.254Z,18.30
2018-03-21T19:25:00.666Z,19.40
2018-03-21T19:27:28.094Z,21.37
2018-03-21T19:29:55.508Z,19.27
2018-03-21T19:32:22.969Z,22.33
2018-03-21T19:34:50.433Z,24.03
2018-03-21T19:37:18.213Z,25.40
2018-03-21T19:39:45.646Z,24.67
2018-03-21T19:42:13.069Z,25.23
2018-03-21T19:44:40.498Z,25.23
2018-03-21T19:47:07.905Z,26.93
2018-03-21T19:49:35.380Z,27.53
2018-03-21T19:52:02.781Z,26.83
2018-03-21T19:54:30.193Z,30.47
2018-03-21T19:56:57.621Z,27.60
2018-03-21T19:59:25.058Z,28.93
2018-03-21T20:01:52.466Z,28.37
2018-03-21T20:04:19.891Z,30.60
2018-03-21T20:06:47.317Z,29.57
2018-03-21T20:09:15.184Z,30.90
2018-03-21T20:11:42.602Z,29.20
2018-03-21T20:14:09.997Z,31.27
2018-03-21T20:16:37.426Z,29.33
2018-03-21T20:19:04.835Z,31.93
2018-03-21T20:21:32.239Z,31.63
2018-03-21T20:23:59.662Z,30.57
2018-03-21T20:26:27.065Z,34.47
2018-03-21T20:28:54.505Z,33.13
2018-03-21T20:31:21.952Z,32.07
2018-03-21T20:33:49.362Z,32.83
2018-03-21T20:36:16.795Z,36.57
2018-03-21T20:38:44.209Z,37.00
2018-03-21T20:41:11.613Z,32.47
2018-03-21T20:43:39.033Z,34.23
2018-03-21T20:46:06.440Z,35.50
2018-03-21T20:48:34.046Z,35.47
2018-03-21T20:51:01.508Z,36.13
2018-03-21T20:53:28.866Z,37.80
2018-03-21T20:55:56.518Z,35.73
2018-03-21T20:58:23.942Z,37.80
2018-03-21T21:00:51.367Z,33.77
2018-03-21T21:03:19.068Z,36.00
2018-03-21T21:05:46.489Z,37.90
2018-03-21T21:08:13.966Z,34.40
2018-03-21T21:10:41.587Z,38.00
2018-03-21T21:13:08.989Z,36.00
2018-03-21T21:15:36.405Z,39.40
2018-03-21T21:18:03.938Z,37.20
2018-03-21T21:20:31.353Z,36.27
2018-03-21T21:22:58.755Z,36.53
2018-03-21T21:25:26.317Z,35.97
2018-03-21T21:27:53.737Z,36.40
2018-03-21T21:30:21.159Z,35.07
2018-03-21T21:32:48.865Z,31.83
2018-03-21T21:35:16.286Z,34.30
2018-03-21T21:37:43.865Z,35.27
2018-03-21T21:40:11.611Z,34.20
2018-03-21T21:42:39.022Z,35.60
2018-03-21T21:45:06.455Z,29.23
2018-03-21T21:47:33.876Z,32.10
2018-03-21T21:50:01.423Z,27.27
2018-03-21T21:52:29.062Z,28.53
2018-03-21T21:54:56.547Z,28.03
2018-03-21T21:57:24.010Z,29.40
2018-03-21T21:59:51.435Z,24.40
2018-03-21T22:02:18.878Z,24.07
2018-03-21T22:04:46.339Z,24.87
2018-03-21T22:07:13.749Z,25.20
2018-03-21T22:09:41.184Z,24.17
2018-03-21T22:12:14.242Z,22.20
2018-03-21T22:14:41.714Z,22.07
2018-03-21T22:17:09.137Z,20.83
2018-03-21T22:19:36.642Z,19.40
2018-03-21T22:22:04.178Z,20.73
2018-03-21T22:24:31.648Z,20.30
2018-03-21T22:26:59.085Z,19.73
2018-03-21T22:29:26.513Z,20.77
2018-03-21T22:31:53.934Z,18.67
2018-03-21T22:34:21.362Z,19.57
2018-03-21T22:36:48.858Z,17.73
2018-03-21T22:39:16.413Z,18.53
2018-03-21T22:41:43.898Z,17.13
2018-03-21T22:44:11.317Z,19.13
2018-03-21T22:46:38.740Z,18.43
2018-03-21T22:49:06.546Z,17.73
2018-03-21T22:51:33.953Z,17.30
2018-03-21T22:54:01.361Z,17.90
2018-03-21T22:56:28.782Z,19.10
2018-03-21T22:58:56.194Z,17.67
2018-03-21T23:01:23.833Z,16.67
2018-03-21T23:03:51.309Z,17.23
2018-03-21T23:06:18.827Z,16.90
2018-03-21T23:08:46.250Z,16.43
2018-03-21T23:11:13.702Z,17.67
2018-03-21T23:13:41.111Z,15.37
2018-03-21T23:16:08.541Z,15.80
2018-03-21T23:18:35.954Z,16.53
2018-03-21T23:21:03.374Z,17.17
2018-03-21T23:23:30.785Z,16.17
2018-03-21T23:25:58.213Z,16.80
2018-03-21T23:28:25.625Z,15.33
2018-03-21T23:30:53.038Z,16.10
2018-03-21T23:33:20.472Z,16.50
2018-03-21T23:35:47.896Z,16.63
2018-03-21T23:38:15.372Z,16.47
2018-03-21T23:40:42.827Z,17.23
2018-03-21T23:43:10.266Z,16.80
2018-03-21T23:45:37.680Z,17.83
2018-03-21T23:48:05.206Z,17.10
2018-03-21T23:50:32.626Z,18.07
2018-03-21T23:53:00.038Z,19.17
2018-03-21T23:55:27.462Z,17.30
2018-03-21T23:57:55.054Z,19.10
